Fort MacKay, Canada
Current Conditions -  °F | °C
As of 2:00 AM on Friday 31 Oct 2014 (Local Time) from CYMM Reporting Station
Overcast Overcast  
Wind Chill: 23°   Ceiling: 1300
Heat Index: 32°   Visibility: 9mi
Dew Point: 30°   Wind: 13mph
Humidity: 93%   Direction: 120°ESE
Pressure: 29.92"   Gusts: NA
Location:  57°N, 111.48°W
Report Text: CYMM 310800Z AUTO 12011KT 9SM OVC013 00/M01 A2992 RMK SLP151
Loading
Personal Weather Stations






























Interactive Weather Map
Tropical Storm Tracking
New forecast layout! Learn more

10-Day Weather Forecast

Advertisements
Track Severe Weather on mobile